sensor_id;sensor_type;location;lat;lon;timestamp;P1;durP1;ratioP1;P2;durP2;ratioP2
70420;SDS011;57848;51.938;15.520;2023-08-21T00:00:00;14.87;;;8.77;;
70420;SDS011;57848;51.938;15.520;2023-08-21T00:02:26;14.23;;;8.73;;
70420;SDS011;57848;51.938;15.520;2023-08-21T00:04:53;13.98;;;8.75;;
70420;SDS011;57848;51.938;15.520;2023-08-21T00:07:18;14.07;;;9.07;;
70420;SDS011;57848;51.938;15.520;2023-08-21T00:09:44;13.95;;;9.00;;
70420;SDS011;57848;51.938;15.520;2023-08-21T00:12:09;15.03;;;9.73;;
70420;SDS011;57848;51.938;15.520;2023-08-21T00:14:35;16.27;;;9.20;;
70420;SDS011;57848;51.938;15.520;2023-08-21T00:17:01;13.00;;;8.20;;
70420;SDS011;57848;51.938;15.520;2023-08-21T00:19:28;14.75;;;10.25;;
70420;SDS011;57848;51.938;15.520;2023-08-21T00:21:53;14.97;;;9.47;;
70420;SDS011;57848;51.938;15.520;2023-08-21T00:24:18;15.50;;;8.90;;
70420;SDS011;57848;51.938;15.520;2023-08-21T00:26:44;13.80;;;8.33;;
70420;SDS011;57848;51.938;15.520;2023-08-21T00:29:09;13.80;;;8.90;;
70420;SDS011;57848;51.938;15.520;2023-08-21T00:31:34;13.97;;;8.70;;
70420;SDS011;57848;51.938;15.520;2023-08-21T00:34:00;13.70;;;8.73;;
70420;SDS011;57848;51.938;15.520;2023-08-21T00:36:25;13.87;;;8.57;;
70420;SDS011;57848;51.938;15.520;2023-08-21T00:38:50;14.13;;;8.70;;
70420;SDS011;57848;51.938;15.520;2023-08-21T00:41:16;14.70;;;9.17;;
70420;SDS011;57848;51.938;15.520;2023-08-21T00:43:41;13.77;;;9.00;;
70420;SDS011;57848;51.938;15.520;2023-08-21T00:46:06;15.87;;;9.10;;
70420;SDS011;57848;51.938;15.520;2023-08-21T00:48:32;16.27;;;8.70;;
70420;SDS011;57848;51.938;15.520;2023-08-21T00:51:00;14.27;;;9.00;;
70420;SDS011;57848;51.938;15.520;2023-08-21T00:53:25;12.17;;;8.43;;
70420;SDS011;57848;51.938;15.520;2023-08-21T00:55:51;12.07;;;7.70;;
70420;SDS011;57848;51.938;15.520;2023-08-21T00:58:16;13.67;;;7.53;;
70420;SDS011;57848;51.938;15.520;2023-08-21T01:00:43;12.80;;;6.80;;
70420;SDS011;57848;51.938;15.520;2023-08-21T01:03:11;11.00;;;6.50;;
70420;SDS011;57848;51.938;15.520;2023-08-21T01:05:36;9.67;;;5.90;;
70420;SDS011;57848;51.938;15.520;2023-08-21T01:08:03;10.75;;;5.70;;
70420;SDS011;57848;51.938;15.520;2023-08-21T01:16:52;10.55;;;6.45;;
70420;SDS011;57848;51.938;15.520;2023-08-21T01:19:30;11.30;;;6.10;;
70420;SDS011;57848;51.938;15.520;2023-08-21T01:22:05;11.23;;;5.80;;
70420;SDS011;57848;51.938;15.520;2023-08-21T01:24:31;11.57;;;5.33;;
70420;SDS011;57848;51.938;15.520;2023-08-21T01:26:58;9.95;;;5.20;;
70420;SDS011;57848;51.938;15.520;2023-08-21T01:29:25;8.57;;;4.45;;
70420;SDS011;57848;51.938;15.520;2023-08-21T01:32:14;9.20;;;4.07;;
70420;SDS011;57848;51.938;15.520;2023-08-21T01:34:53;8.17;;;3.60;;
70420;SDS011;57848;51.938;15.520;2023-08-21T01:37:20;8.23;;;3.60;;
70420;SDS011;57848;51.938;15.520;2023-08-21T01:39:48;8.68;;;3.70;;
70420;SDS011;57848;51.938;15.520;2023-08-21T01:42:13;9.37;;;3.50;;
70420;SDS011;57848;51.938;15.520;2023-08-21T01:44:39;7.55;;;3.20;;
70420;SDS011;57848;51.938;15.520;2023-08-21T01:47:05;7.22;;;3.35;;
70420;SDS011;57848;51.938;15.520;2023-08-21T01:49:31;7.77;;;2.90;;
70420;SDS011;57848;51.938;15.520;2023-08-21T01:51:56;8.93;;;3.10;;
70420;SDS011;57848;51.938;15.520;2023-08-21T01:54:24;8.52;;;3.17;;
70420;SDS011;57848;51.938;15.520;2023-08-21T01:56:49;8.13;;;3.30;;
70420;SDS011;57848;51.938;15.520;2023-08-21T01:59:15;8.53;;;3.27;;
70420;SDS011;57848;51.938;15.520;2023-08-21T02:01:41;9.23;;;3.10;;
70420;SDS011;57848;51.938;15.520;2023-08-21T02:04:06;7.23;;;3.00;;
70420;SDS011;57848;51.938;15.520;2023-08-21T02:06:32;8.83;;;3.20;;
70420;SDS011;57848;51.938;15.520;2023-08-21T02:08:57;8.73;;;3.13;;
70420;SDS011;57848;51.938;15.520;2023-08-21T02:11:22;6.70;;;2.93;;
70420;SDS011;57848;51.938;15.520;2023-08-21T02:13:50;8.55;;;2.78;;
70420;SDS011;57848;51.938;15.520;2023-08-21T02:16:15;9.70;;;3.93;;
70420;SDS011;57848;51.938;15.520;2023-08-21T02:18:41;8.50;;;3.57;;
70420;SDS011;57848;51.938;15.520;2023-08-21T02:21:06;10.80;;;3.80;;
70420;SDS011;57848;51.938;15.520;2023-08-21T02:23:31;10.63;;;3.40;;
70420;SDS011;57848;51.938;15.520;2023-08-21T02:25:57;10.50;;;3.43;;
70420;SDS011;57848;51.938;15.520;2023-08-21T02:28:22;9.20;;;3.53;;
70420;SDS011;57848;51.938;15.520;2023-08-21T02:30:47;9.00;;;4.23;;
70420;SDS011;57848;51.938;15.520;2023-08-21T02:33:13;7.80;;;3.33;;
70420;SDS011;57848;51.938;15.520;2023-08-21T02:35:38;9.70;;;4.10;;
70420;SDS011;57848;51.938;15.520;2023-08-21T02:38:04;7.80;;;3.50;;
70420;SDS011;57848;51.938;15.520;2023-08-21T02:40:29;10.25;;;4.30;;
70420;SDS011;57848;51.938;15.520;2023-08-21T02:42:54;10.97;;;4.27;;
70420;SDS011;57848;51.938;15.520;2023-08-21T02:45:20;9.70;;;3.87;;
70420;SDS011;57848;51.938;15.520;2023-08-21T02:47:45;9.17;;;4.20;;
70420;SDS011;57848;51.938;15.520;2023-08-21T02:50:10;9.10;;;4.03;;
70420;SDS011;57848;51.938;15.520;2023-08-21T02:52:37;9.63;;;3.70;;
70420;SDS011;57848;51.938;15.520;2023-08-21T02:55:03;11.27;;;4.15;;
70420;SDS011;57848;51.938;15.520;2023-08-21T02:57:29;8.82;;;4.07;;
70420;SDS011;57848;51.938;15.520;2023-08-21T02:59:55;9.07;;;4.10;;
70420;SDS011;57848;51.938;15.520;2023-08-21T03:02:20;8.37;;;3.77;;
70420;SDS011;57848;51.938;15.520;2023-08-21T03:04:46;9.27;;;3.97;;
70420;SDS011;57848;51.938;15.520;2023-08-21T03:07:12;8.57;;;3.70;;
70420;SDS011;57848;51.938;15.520;2023-08-21T03:09:38;8.48;;;3.95;;
70420;SDS011;57848;51.938;15.520;2023-08-21T03:12:04;10.68;;;3.42;;
70420;SDS011;57848;51.938;15.520;2023-08-21T03:14:30;9.33;;;4.10;;
70420;SDS011;57848;51.938;15.520;2023-08-21T03:16:56;9.57;;;3.75;;
70420;SDS011;57848;51.938;15.520;2023-08-21T03:19:21;8.23;;;3.57;;
70420;SDS011;57848;51.938;15.520;2023-08-21T03:21:46;7.13;;;3.43;;
70420;SDS011;57848;51.938;15.520;2023-08-21T03:24:12;7.90;;;3.50;;
70420;SDS011;57848;51.938;15.520;2023-08-21T03:26:37;10.33;;;3.63;;
70420;SDS011;57848;51.938;15.520;2023-08-21T03:29:02;8.20;;;3.20;;
70420;SDS011;57848;51.938;15.520;2023-08-21T03:31:29;8.67;;;3.17;;
70420;SDS011;57848;51.938;15.520;2023-08-21T03:33:56;7.95;;;3.35;;
70420;SDS011;57848;51.938;15.520;2023-08-21T03:36:22;8.00;;;3.30;;
70420;SDS011;57848;51.938;15.520;2023-08-21T03:38:57;7.70;;;3.50;;
70420;SDS011;57848;51.938;15.520;2023-08-21T03:41:23;8.70;;;3.53;;
70420;SDS011;57848;51.938;15.520;2023-08-21T03:43:49;8.83;;;3.43;;
70420;SDS011;57848;51.938;15.520;2023-08-21T03:46:14;9.53;;;3.00;;
70420;SDS011;57848;51.938;15.520;2023-08-21T03:48:39;8.63;;;3.67;;
70420;SDS011;57848;51.938;15.520;2023-08-21T03:51:05;9.00;;;3.17;;
70420;SDS011;57848;51.938;15.520;2023-08-21T03:53:30;8.68;;;3.38;;
70420;SDS011;57848;51.938;15.520;2023-08-21T03:55:55;9.17;;;3.60;;
70420;SDS011;57848;51.938;15.520;2023-08-21T03:58:21;8.73;;;3.40;;
70420;SDS011;57848;51.938;15.520;2023-08-21T04:00:46;8.60;;;3.20;;
70420;SDS011;57848;51.938;15.520;2023-08-21T04:03:11;9.53;;;3.43;;
70420;SDS011;57848;51.938;15.520;2023-08-21T04:05:37;8.68;;;3.33;;
70420;SDS011;57848;51.938;15.520;2023-08-21T04:08:02;9.17;;;3.77;;
70420;SDS011;57848;51.938;15.520;2023-08-21T04:10:28;11.20;;;3.60;;
70420;SDS011;57848;51.938;15.520;2023-08-21T04:12:55;8.30;;;3.40;;
70420;SDS011;57848;51.938;15.520;2023-08-21T04:15:20;7.77;;;3.57;;
70420;SDS011;57848;51.938;15.520;2023-08-21T04:17:45;7.93;;;3.60;;
70420;SDS011;57848;51.938;15.520;2023-08-21T04:20:11;8.87;;;4.07;;
70420;SDS011;57848;51.938;15.520;2023-08-21T04:22:36;7.68;;;3.55;;
70420;SDS011;57848;51.938;15.520;2023-08-21T04:25:02;7.50;;;3.50;;
70420;SDS011;57848;51.938;15.520;2023-08-21T04:27:27;8.57;;;3.90;;
70420;SDS011;57848;51.938;15.520;2023-08-21T04:29:53;10.43;;;3.93;;
70420;SDS011;57848;51.938;15.520;2023-08-21T04:32:18;8.47;;;2.83;;
70420;SDS011;57848;51.938;15.520;2023-08-21T04:34:44;8.55;;;3.20;;
70420;SDS011;57848;51.938;15.520;2023-08-21T04:37:10;8.90;;;3.53;;
70420;SDS011;57848;51.938;15.520;2023-08-21T04:39:36;7.73;;;3.43;;
70420;SDS011;57848;51.938;15.520;2023-08-21T04:42:01;7.28;;;2.90;;
70420;SDS011;57848;51.938;15.520;2023-08-21T04:44:27;7.20;;;3.30;;
70420;SDS011;57848;51.938;15.520;2023-08-21T04:46:52;8.57;;;3.00;;
70420;SDS011;57848;51.938;15.520;2023-08-21T04:49:18;8.65;;;2.90;;
70420;SDS011;57848;51.938;15.520;2023-08-21T04:51:43;10.97;;;3.13;;
70420;SDS011;57848;51.938;15.520;2023-08-21T04:54:09;7.43;;;3.03;;
70420;SDS011;57848;51.938;15.520;2023-08-21T04:56:34;7.90;;;2.92;;
70420;SDS011;57848;51.938;15.520;2023-08-21T04:59:01;8.77;;;3.30;;
70420;SDS011;57848;51.938;15.520;2023-08-21T05:01:28;7.90;;;3.17;;
70420;SDS011;57848;51.938;15.520;2023-08-21T05:03:55;10.07;;;3.20;;
70420;SDS011;57848;51.938;15.520;2023-08-21T05:06:22;7.15;;;3.13;;
70420;SDS011;57848;51.938;15.520;2023-08-21T05:08:50;8.63;;;3.42;;
70420;SDS011;57848;51.938;15.520;2023-08-21T05:11:16;8.03;;;3.63;;
70420;SDS011;57848;51.938;15.520;2023-08-21T05:13:42;9.27;;;3.78;;
70420;SDS011;57848;51.938;15.520;2023-08-21T05:16:09;8.70;;;3.60;;
70420;SDS011;57848;51.938;15.520;2023-08-21T05:18:37;9.48;;;3.70;;
70420;SDS011;57848;51.938;15.520;2023-08-21T05:21:03;8.48;;;3.22;;
70420;SDS011;57848;51.938;15.520;2023-08-21T05:23:29;7.88;;;3.60;;
70420;SDS011;57848;51.938;15.520;2023-08-21T05:25:59;12.15;;;3.97;;
70420;SDS011;57848;51.938;15.520;2023-08-21T05:28:25;9.47;;;3.40;;
70420;SDS011;57848;51.938;15.520;2023-08-21T05:30:50;7.13;;;3.03;;
70420;SDS011;57848;51.938;15.520;2023-08-21T05:33:17;9.27;;;3.17;;
70420;SDS011;57848;51.938;15.520;2023-08-21T05:35:43;7.40;;;3.22;;
70420;SDS011;57848;51.938;15.520;2023-08-21T05:38:09;9.20;;;3.40;;
70420;SDS011;57848;51.938;15.520;2023-08-21T05:40:34;8.90;;;3.10;;
70420;SDS011;57848;51.938;15.520;2023-08-21T05:43:00;8.75;;;3.42;;
70420;SDS011;57848;51.938;15.520;2023-08-21T05:45:26;8.20;;;2.83;;
70420;SDS011;57848;51.938;15.520;2023-08-21T05:47:51;9.47;;;3.70;;
70420;SDS011;57848;51.938;15.520;2023-08-21T05:50:16;7.53;;;3.20;;
70420;SDS011;57848;51.938;15.520;2023-08-21T05:52:42;8.80;;;2.70;;
70420;SDS011;57848;51.938;15.520;2023-08-21T05:55:07;7.80;;;2.60;;
70420;SDS011;57848;51.938;15.520;2023-08-21T05:57:33;8.27;;;3.17;;
70420;SDS011;57848;51.938;15.520;2023-08-21T05:59:58;9.67;;;2.80;;
70420;SDS011;57848;51.938;15.520;2023-08-21T06:02:25;9.98;;;3.03;;
70420;SDS011;57848;51.938;15.520;2023-08-21T06:04:51;9.47;;;2.60;;
70420;SDS011;57848;51.938;15.520;2023-08-21T06:07:16;8.93;;;3.20;;
70420;SDS011;57848;51.938;15.520;2023-08-21T06:09:41;9.77;;;3.47;;
70420;SDS011;57848;51.938;15.520;2023-08-21T06:12:07;8.43;;;2.80;;
70420;SDS011;57848;51.938;15.520;2023-08-21T06:14:33;9.98;;;3.85;;
70420;SDS011;57848;51.938;15.520;2023-08-21T06:17:00;9.38;;;3.13;;
70420;SDS011;57848;51.938;15.520;2023-08-21T06:19:27;10.70;;;3.83;;
70420;SDS011;57848;51.938;15.520;2023-08-21T06:21:54;10.23;;;3.33;;
70420;SDS011;57848;51.938;15.520;2023-08-21T06:24:22;10.07;;;3.67;;
70420;SDS011;57848;51.938;15.520;2023-08-21T06:26:53;10.75;;;3.45;;
70420;SDS011;57848;51.938;15.520;2023-08-21T06:29:18;13.80;;;3.40;;
70420;SDS011;57848;51.938;15.520;2023-08-21T06:31:45;8.25;;;3.88;;
70420;SDS011;57848;51.938;15.520;2023-08-21T06:34:11;8.13;;;3.60;;
70420;SDS011;57848;51.938;15.520;2023-08-21T06:36:36;10.15;;;3.70;;
70420;SDS011;57848;51.938;15.520;2023-08-21T06:39:02;8.77;;;3.80;;
70420;SDS011;57848;51.938;15.520;2023-08-21T06:41:28;9.02;;;3.88;;
70420;SDS011;57848;51.938;15.520;2023-08-21T06:43:53;7.63;;;3.30;;
70420;SDS011;57848;51.938;15.520;2023-08-21T06:46:20;8.43;;;3.33;;
70420;SDS011;57848;51.938;15.520;2023-08-21T06:48:46;9.07;;;3.38;;
70420;SDS011;57848;51.938;15.520;2023-08-21T06:51:11;8.77;;;3.60;;
70420;SDS011;57848;51.938;15.520;2023-08-21T06:53:37;7.40;;;3.40;;
70420;SDS011;57848;51.938;15.520;2023-08-21T06:56:02;8.33;;;4.13;;
70420;SDS011;57848;51.938;15.520;2023-08-21T06:58:28;9.50;;;3.97;;
70420;SDS011;57848;51.938;15.520;2023-08-21T07:00:54;9.15;;;3.72;;
70420;SDS011;57848;51.938;15.520;2023-08-21T07:03:20;7.32;;;3.40;;
70420;SDS011;57848;51.938;15.520;2023-08-21T07:05:46;7.47;;;3.40;;
70420;SDS011;57848;51.938;15.520;2023-08-21T07:08:20;14.90;;;3.83;;
70420;SDS011;57848;51.938;15.520;2023-08-21T07:10:45;9.73;;;4.23;;
70420;SDS011;57848;51.938;15.520;2023-08-21T07:13:10;8.67;;;3.90;;
70420;SDS011;57848;51.938;15.520;2023-08-21T07:15:36;9.90;;;3.97;;
70420;SDS011;57848;51.938;15.520;2023-08-21T07:18:01;10.17;;;3.87;;
70420;SDS011;57848;51.938;15.520;2023-08-21T07:20:27;10.53;;;4.27;;
70420;SDS011;57848;51.938;15.520;2023-08-21T07:22:52;9.17;;;4.33;;
70420;SDS011;57848;51.938;15.520;2023-08-21T07:25:17;10.43;;;4.47;;
70420;SDS011;57848;51.938;15.520;2023-08-21T07:27:42;12.63;;;4.53;;
70420;SDS011;57848;51.938;15.520;2023-08-21T07:30:08;10.73;;;4.63;;
70420;SDS011;57848;51.938;15.520;2023-08-21T07:32:33;9.73;;;4.60;;
70420;SDS011;57848;51.938;15.520;2023-08-21T07:34:59;11.67;;;4.30;;
70420;SDS011;57848;51.938;15.520;2023-08-21T07:37:24;9.50;;;4.70;;
70420;SDS011;57848;51.938;15.520;2023-08-21T07:39:49;9.60;;;4.33;;
70420;SDS011;57848;51.938;15.520;2023-08-21T07:42:15;9.30;;;4.00;;
70420;SDS011;57848;51.938;15.520;2023-08-21T07:44:40;9.17;;;4.00;;
70420;SDS011;57848;51.938;15.520;2023-08-21T07:47:06;11.03;;;4.60;;
70420;SDS011;57848;51.938;15.520;2023-08-21T07:49:32;8.40;;;3.90;;
70420;SDS011;57848;51.938;15.520;2023-08-21T07:51:57;10.18;;;3.88;;
70420;SDS011;57848;51.938;15.520;2023-08-21T07:54:23;10.23;;;3.37;;
70420;SDS011;57848;51.938;15.520;2023-08-21T07:56:49;8.50;;;2.97;;
70420;SDS011;57848;51.938;15.520;2023-08-21T07:59:15;8.32;;;3.22;;
70420;SDS011;57848;51.938;15.520;2023-08-21T08:01:40;8.80;;;3.50;;
70420;SDS011;57848;51.938;15.520;2023-08-21T08:04:05;9.13;;;3.67;;
70420;SDS011;57848;51.938;15.520;2023-08-21T08:06:31;7.63;;;3.30;;
70420;SDS011;57848;51.938;15.520;2023-08-21T08:08:56;8.98;;;3.50;;
70420;SDS011;57848;51.938;15.520;2023-08-21T08:11:22;7.57;;;2.97;;
70420;SDS011;57848;51.938;15.520;2023-08-21T08:13:47;9.35;;;3.42;;
70420;SDS011;57848;51.938;15.520;2023-08-21T08:16:13;8.33;;;4.03;;
70420;SDS011;57848;51.938;15.520;2023-08-21T08:18:38;13.30;;;3.90;;
70420;SDS011;57848;51.938;15.520;2023-08-21T08:21:03;8.37;;;3.33;;
70420;SDS011;57848;51.938;15.520;2023-08-21T08:23:29;8.37;;;3.17;;
70420;SDS011;57848;51.938;15.520;2023-08-21T08:25:54;7.93;;;3.40;;
70420;SDS011;57848;51.938;15.520;2023-08-21T08:28:20;8.60;;;3.00;;
70420;SDS011;57848;51.938;15.520;2023-08-21T08:30:45;9.47;;;2.90;;
70420;SDS011;57848;51.938;15.520;2023-08-21T08:33:11;10.47;;;3.30;;
70420;SDS011;57848;51.938;15.520;2023-08-21T08:35:36;9.43;;;3.47;;
70420;SDS011;57848;51.938;15.520;2023-08-21T08:38:02;8.33;;;2.77;;
70420;SDS011;57848;51.938;15.520;2023-08-21T08:40:27;8.77;;;3.23;;
70420;SDS011;57848;51.938;15.520;2023-08-21T08:42:52;8.33;;;3.50;;
70420;SDS011;57848;51.938;15.520;2023-08-21T08:45:20;9.53;;;3.60;;
70420;SDS011;57848;51.938;15.520;2023-08-21T08:47:55;11.47;;;3.63;;
70420;SDS011;57848;51.938;15.520;2023-08-21T08:50:23;10.43;;;3.10;;
70420;SDS011;57848;51.938;15.520;2023-08-21T08:52:49;9.02;;;3.30;;
70420;SDS011;57848;51.938;15.520;2023-08-21T08:55:15;6.63;;;2.60;;
70420;SDS011;57848;51.938;15.520;2023-08-21T08:57:40;9.33;;;3.30;;
70420;SDS011;57848;51.938;15.520;2023-08-21T09:00:06;8.35;;;3.13;;
70420;SDS011;57848;51.938;15.520;2023-08-21T09:02:32;7.13;;;2.77;;
70420;SDS011;57848;51.938;15.520;2023-08-21T09:04:57;7.38;;;2.85;;
70420;SDS011;57848;51.938;15.520;2023-08-21T09:07:23;9.70;;;2.93;;
70420;SDS011;57848;51.938;15.520;2023-08-21T09:09:49;7.75;;;3.05;;
70420;SDS011;57848;51.938;15.520;2023-08-21T09:12:15;8.90;;;3.10;;
70420;SDS011;57848;51.938;15.520;2023-08-21T09:14:42;7.07;;;2.58;;
70420;SDS011;57848;51.938;15.520;2023-08-21T09:17:08;13.38;;;3.15;;
70420;SDS011;57848;51.938;15.520;2023-08-21T09:19:34;10.65;;;2.63;;
70420;SDS011;57848;51.938;15.520;2023-08-21T09:22:09;9.67;;;3.00;;
70420;SDS011;57848;51.938;15.520;2023-08-21T09:25:02;9.32;;;2.60;;
70420;SDS011;57848;51.938;15.520;2023-08-21T09:27:35;7.63;;;2.80;;
70420;SDS011;57848;51.938;15.520;2023-08-21T09:30:08;10.43;;;3.00;;
70420;SDS011;57848;51.938;15.520;2023-08-21T09:32:51;8.50;;;2.77;;
70420;SDS011;57848;51.938;15.520;2023-08-21T09:35:17;6.85;;;2.78;;
70420;SDS011;57848;51.938;15.520;2023-08-21T09:37:42;6.50;;;2.60;;
70420;SDS011;57848;51.938;15.520;2023-08-21T09:40:11;7.35;;;2.50;;
70420;SDS011;57848;51.938;15.520;2023-08-21T09:42:36;7.50;;;2.30;;
70420;SDS011;57848;51.938;15.520;2023-08-21T09:45:04;11.82;;;2.60;;
70420;SDS011;57848;51.938;15.520;2023-08-21T09:47:30;9.25;;;2.90;;
70420;SDS011;57848;51.938;15.520;2023-08-21T09:49:56;10.60;;;3.13;;
70420;SDS011;57848;51.938;15.520;2023-08-21T09:52:23;8.13;;;3.20;;
70420;SDS011;57848;51.938;15.520;2023-08-21T09:54:49;9.70;;;2.75;;
70420;SDS011;57848;51.938;15.520;2023-08-21T09:57:18;6.65;;;2.60;;
70420;SDS011;57848;51.938;15.520;2023-08-21T09:59:46;9.43;;;2.70;;
70420;SDS011;57848;51.938;15.520;2023-08-21T10:02:14;9.68;;;2.53;;
70420;SDS011;57848;51.938;15.520;2023-08-21T10:04:40;8.07;;;3.00;;
70420;SDS011;57848;51.938;15.520;2023-08-21T10:07:07;8.57;;;2.83;;
70420;SDS011;57848;51.938;15.520;2023-08-21T10:09:34;7.60;;;2.78;;
70420;SDS011;57848;51.938;15.520;2023-08-21T10:12:00;8.43;;;2.70;;
70420;SDS011;57848;51.938;15.520;2023-08-21T10:14:26;8.82;;;2.97;;
70420;SDS011;57848;51.938;15.520;2023-08-21T10:16:52;9.43;;;2.93;;
70420;SDS011;57848;51.938;15.520;2023-08-21T10:19:18;9.93;;;3.17;;
70420;SDS011;57848;51.938;15.520;2023-08-21T10:21:44;8.03;;;2.90;;
70420;SDS011;57848;51.938;15.520;2023-08-21T10:24:12;12.43;;;3.10;;
70420;SDS011;57848;51.938;15.520;2023-08-21T10:26:38;10.10;;;3.13;;
70420;SDS011;57848;51.938;15.520;2023-08-21T10:29:04;10.07;;;3.50;;
70420;SDS011;57848;51.938;15.520;2023-08-21T10:31:34;8.55;;;3.42;;
70420;SDS011;57848;51.938;15.520;2023-08-21T10:34:10;9.57;;;3.10;;
70420;SDS011;57848;51.938;15.520;2023-08-21T10:36:39;8.38;;;3.40;;
70420;SDS011;57848;51.938;15.520;2023-08-21T10:39:18;9.77;;;3.60;;
70420;SDS011;57848;51.938;15.520;2023-08-21T10:47:30;8.68;;;3.92;;
70420;SDS011;57848;51.938;15.520;2023-08-21T10:50:00;8.07;;;4.03;;
70420;SDS011;57848;51.938;15.520;2023-08-21T10:52:36;9.23;;;4.10;;
70420;SDS011;57848;51.938;15.520;2023-08-21T10:55:04;10.00;;;3.90;;
70420;SDS011;57848;51.938;15.520;2023-08-21T10:57:31;10.32;;;4.32;;
70420;SDS011;57848;51.938;15.520;2023-08-21T11:00:07;7.85;;;3.42;;
70420;SDS011;57848;51.938;15.520;2023-08-21T11:02:39;10.10;;;3.47;;
70420;SDS011;57848;51.938;15.520;2023-08-21T11:05:07;9.50;;;3.70;;
70420;SDS011;57848;51.938;15.520;2023-08-21T11:07:37;8.13;;;3.45;;
70420;SDS011;57848;51.938;15.520;2023-08-21T11:10:05;8.70;;;4.03;;
70420;SDS011;57848;51.938;15.520;2023-08-21T11:12:32;8.57;;;3.80;;
70420;SDS011;57848;51.938;15.520;2023-08-21T11:14:57;9.53;;;4.03;;
70420;SDS011;57848;51.938;15.520;2023-08-21T11:17:22;9.10;;;3.80;;
70420;SDS011;57848;51.938;15.520;2023-08-21T11:19:48;7.43;;;3.57;;
70420;SDS011;57848;51.938;15.520;2023-08-21T11:22:15;8.32;;;3.63;;
70420;SDS011;57848;51.938;15.520;2023-08-21T11:24:44;9.57;;;3.47;;
70420;SDS011;57848;51.938;15.520;2023-08-21T11:27:14;7.95;;;3.53;;
70420;SDS011;57848;51.938;15.520;2023-08-21T11:29:47;7.97;;;3.13;;
70420;SDS011;57848;51.938;15.520;2023-08-21T11:32:14;7.97;;;3.10;;
70420;SDS011;57848;51.938;15.520;2023-08-21T11:34:42;8.25;;;3.50;;
70420;SDS011;57848;51.938;15.520;2023-08-21T11:37:12;7.65;;;3.22;;
70420;SDS011;57848;51.938;15.520;2023-08-21T11:39:38;7.00;;;3.10;;
70420;SDS011;57848;51.938;15.520;2023-08-21T11:42:18;9.80;;;3.50;;
70420;SDS011;57848;51.938;15.520;2023-08-21T11:44:49;9.65;;;3.65;;
70420;SDS011;57848;51.938;15.520;2023-08-21T11:47:16;8.80;;;3.33;;
70420;SDS011;57848;51.938;15.520;2023-08-21T11:49:43;9.55;;;3.70;;
70420;SDS011;57848;51.938;15.520;2023-08-21T11:52:10;7.43;;;3.40;;
70420;SDS011;57848;51.938;15.520;2023-08-21T11:54:38;8.02;;;3.38;;
70420;SDS011;57848;51.938;15.520;2023-08-21T11:57:06;7.70;;;3.15;;
70420;SDS011;57848;51.938;15.520;2023-08-21T11:59:38;10.40;;;3.50;;
70420;SDS011;57848;51.938;15.520;2023-08-21T12:02:13;8.38;;;3.25;;
70420;SDS011;57848;51.938;15.520;2023-08-21T12:04:40;8.30;;;3.53;;
70420;SDS011;57848;51.938;15.520;2023-08-21T12:07:05;8.43;;;3.65;;
70420;SDS011;57848;51.938;15.520;2023-08-21T12:09:30;7.63;;;3.47;;
70420;SDS011;57848;51.938;15.520;2023-08-21T12:11:56;8.20;;;4.00;;
70420;SDS011;57848;51.938;15.520;2023-08-21T12:14:22;8.80;;;4.20;;
70420;SDS011;57848;51.938;15.520;2023-08-21T12:16:48;8.18;;;3.88;;
70420;SDS011;57848;51.938;15.520;2023-08-21T12:19:13;8.83;;;3.90;;
70420;SDS011;57848;51.938;15.520;2023-08-21T12:21:39;8.07;;;4.03;;
70420;SDS011;57848;51.938;15.520;2023-08-21T12:24:05;8.47;;;4.10;;
70420;SDS011;57848;51.938;15.520;2023-08-21T12:26:31;9.45;;;4.30;;
70420;SDS011;57848;51.938;15.520;2023-08-21T12:28:57;10.98;;;4.20;;
70420;SDS011;57848;51.938;15.520;2023-08-21T12:31:22;9.83;;;4.17;;
70420;SDS011;57848;51.938;15.520;2023-08-21T12:33:48;8.67;;;4.47;;
70420;SDS011;57848;51.938;15.520;2023-08-21T12:36:13;10.30;;;4.17;;
70420;SDS011;57848;51.938;15.520;2023-08-21T12:38:38;9.40;;;4.23;;
70420;SDS011;57848;51.938;15.520;2023-08-21T12:41:04;11.23;;;4.43;;
70420;SDS011;57848;51.938;15.520;2023-08-21T12:43:30;9.37;;;4.20;;
70420;SDS011;57848;51.938;15.520;2023-08-21T12:45:55;10.07;;;4.07;;
70420;SDS011;57848;51.938;15.520;2023-08-21T12:48:21;10.33;;;4.60;;
70420;SDS011;57848;51.938;15.520;2023-08-21T12:50:46;7.83;;;4.37;;
70420;SDS011;57848;51.938;15.520;2023-08-21T12:53:12;9.40;;;4.43;;
70420;SDS011;57848;51.938;15.520;2023-08-21T12:55:37;8.27;;;4.23;;
70420;SDS011;57848;51.938;15.520;2023-08-21T12:58:03;8.40;;;4.60;;
70420;SDS011;57848;51.938;15.520;2023-08-21T13:00:31;8.10;;;4.90;;
70420;SDS011;57848;51.938;15.520;2023-08-21T13:02:57;13.00;;;5.30;;
70420;SDS011;57848;51.938;15.520;2023-08-21T13:05:22;12.43;;;5.20;;
70420;SDS011;57848;51.938;15.520;2023-08-21T13:07:48;8.67;;;4.33;;
70420;SDS011;57848;51.938;15.520;2023-08-21T13:10:13;9.47;;;4.43;;
70420;SDS011;57848;51.938;15.520;2023-08-21T13:12:38;11.83;;;4.87;;
70420;SDS011;57848;51.938;15.520;2023-08-21T13:15:04;11.67;;;4.77;;
70420;SDS011;57848;51.938;15.520;2023-08-21T13:17:32;10.07;;;4.70;;
70420;SDS011;57848;51.938;15.520;2023-08-21T13:19:57;14.60;;;5.07;;
70420;SDS011;57848;51.938;15.520;2023-08-21T13:22:22;8.87;;;4.43;;
70420;SDS011;57848;51.938;15.520;2023-08-21T13:24:48;11.17;;;4.90;;
70420;SDS011;57848;51.938;15.520;2023-08-21T13:27:13;10.50;;;4.90;;
70420;SDS011;57848;51.938;15.520;2023-08-21T13:29:38;8.47;;;4.23;;
70420;SDS011;57848;51.938;15.520;2023-08-21T13:32:05;10.63;;;5.18;;
70420;SDS011;57848;51.938;15.520;2023-08-21T13:34:30;8.97;;;4.40;;
70420;SDS011;57848;51.938;15.520;2023-08-21T13:36:55;9.83;;;4.57;;
70420;SDS011;57848;51.938;15.520;2023-08-21T13:39:21;11.18;;;4.72;;
70420;SDS011;57848;51.938;15.520;2023-08-21T13:41:48;10.70;;;4.77;;
70420;SDS011;57848;51.938;15.520;2023-08-21T13:44:14;9.60;;;4.47;;
70420;SDS011;57848;51.938;15.520;2023-08-21T13:46:39;10.23;;;5.17;;
70420;SDS011;57848;51.938;15.520;2023-08-21T13:49:04;10.90;;;5.07;;
70420;SDS011;57848;51.938;15.520;2023-08-21T13:51:31;8.70;;;4.87;;
70420;SDS011;57848;51.938;15.520;2023-08-21T13:53:56;9.18;;;4.80;;
70420;SDS011;57848;51.938;15.520;2023-08-21T13:56:22;9.67;;;4.60;;
70420;SDS011;57848;51.938;15.520;2023-08-21T13:58:47;9.17;;;4.23;;
70420;SDS011;57848;51.938;15.520;2023-08-21T14:01:12;9.03;;;3.90;;
70420;SDS011;57848;51.938;15.520;2023-08-21T14:03:38;8.27;;;4.20;;
70420;SDS011;57848;51.938;15.520;2023-08-21T14:06:03;7.37;;;3.70;;
70420;SDS011;57848;51.938;15.520;2023-08-21T14:08:28;9.52;;;3.70;;
70420;SDS011;57848;51.938;15.520;2023-08-21T14:10:54;8.87;;;3.53;;
70420;SDS011;57848;51.938;15.520;2023-08-21T14:13:19;9.37;;;3.83;;
70420;SDS011;57848;51.938;15.520;2023-08-21T14:15:45;10.33;;;3.93;;
70420;SDS011;57848;51.938;15.520;2023-08-21T14:18:11;7.70;;;3.90;;
70420;SDS011;57848;51.938;15.520;2023-08-21T14:20:36;10.60;;;3.80;;
70420;SDS011;57848;51.938;15.520;2023-08-21T14:23:01;8.20;;;3.70;;
70420;SDS011;57848;51.938;15.520;2023-08-21T14:25:27;8.02;;;3.60;;
70420;SDS011;57848;51.938;15.520;2023-08-21T14:27:52;9.00;;;4.20;;
70420;SDS011;57848;51.938;15.520;2023-08-21T14:30:17;8.73;;;3.70;;
70420;SDS011;57848;51.938;15.520;2023-08-21T14:32:43;9.20;;;4.00;;
70420;SDS011;57848;51.938;15.520;2023-08-21T14:35:08;12.43;;;4.73;;
70420;SDS011;57848;51.938;15.520;2023-08-21T14:37:34;9.07;;;4.20;;